Terminal Aerodrome Forecast
Issued by NWS St Louis, MO

Home | Current Version | Previous Version | Text Only | Print | Product List | Glossary On
Versions: 1 2 3 4 5 6 7 8 9 10 11 12 13 14 15 16 17 18 19 20 21 22 23 24 25 26 27 28 29
000
FTUS43 KLSX 200137 CCA
TAFSTL
TAF COR
KSTL 200137Z 2002/2106 05010KT P6SM VCTS BKN040CB
      TEMPO 2002/2003 VRB15G30KT 2SM TSRA OVC020CB
     FM200400 07010G16KT P6SM VCSH OVC040
     FM200900 12007KT P6SM SHRA VCTS OVC025CB
     FM201200 15009KT P6SM OVC035
     FM201800 20009KT P6SM BKN040=

USA.gov is the U.S. government's official web portal to all federal, state and local government web resources and services.